Time;durP1;ratioP1;P1;durP2;ratioP2;P2;SDS_P1;SDS_P2;PMS_P1;PMS_P2;Temp;Humidity;BMP_temperature;BMP_pressure;BME280_temperature;BME280_humidity;BME280_pressure;Samples;Min_cycle;Max_cycle;Signal;HPM_P1;HPM_P2
2022/03/26 00:01:42;;;;;;;27.52;13.80;;;5.20;99.90;;;;;;5006627;28;20410;-83
2022/03/26 00:04:08;;;;;;;24.50;13.48;;;5.10;99.90;;;;;;5008885;28;20049;-83
2022/03/26 00:06:34;;;;;;;21.80;12.00;;;5.10;99.90;;;;;;4990624;28;20497;-83
2022/03/26 00:08:59;;;;;;;29.60;20.00;;;5.10;99.90;;;;;;5008409;28;20049;-83
2022/03/26 00:11:25;;;;;;;23.90;12.68;;;5.20;99.90;;;;;;5006928;28;20118;-83
2022/03/26 00:13:51;;;;;;;25.60;10.88;;;5.10;99.90;;;;;;5039686;28;20050;-82
2022/03/26 00:16:16;;;;;;;22.60;12.07;;;5.00;99.90;;;;;;5008110;28;20115;-82
2022/03/26 00:18:42;;;;;;;26.50;19.75;;;5.00;99.90;;;;;;5007170;28;20065;-83
2022/03/26 00:21:08;;;;;;;24.52;11.88;;;5.10;99.90;;;;;;5008954;28;20049;-83
2022/03/26 00:23:34;;;;;;;27.48;13.27;;;5.00;99.90;;;;;;5013241;28;20085;-82
2022/03/26 00:26:00;;;;;;;26.40;13.88;;;4.90;99.90;;;;;;5010119;28;20091;-82
2022/03/26 00:28:26;;;;;;;32.85;14.90;;;4.90;99.90;;;;;;5009237;28;20050;-83
2022/03/26 00:30:52;;;;;;;26.05;13.57;;;4.80;99.90;;;;;;5008079;28;20042;-83
2022/03/26 00:33:18;;;;;;;25.02;13.50;;;4.80;99.90;;;;;;5021221;28;20052;-83
2022/03/26 00:35:44;;;;;;;26.15;13.68;;;4.80;99.90;;;;;;5027535;28;20398;-83
2022/03/26 00:38:09;;;;;;;27.50;14.10;;;4.70;99.90;;;;;;5006922;28;20137;-83
2022/03/26 00:40:35;;;;;;;27.45;13.15;;;4.70;99.90;;;;;;5007475;28;20103;-83
2022/03/26 00:43:01;;;;;;;28.10;14.13;;;4.70;99.90;;;;;;5007947;28;20053;-83
2022/03/26 00:45:29;;;;;;;27.50;14.07;;;4.60;99.90;;;;;;5008456;28;20402;-82
2022/03/26 00:47:55;;;;;;;29.50;14.73;;;4.60;99.90;;;;;;5007562;28;20069;-83
2022/03/26 00:50:21;;;;;;;28.05;14.38;;;4.60;99.90;;;;;;5023840;28;20132;-84
2022/03/26 00:52:47;;;;;;;27.20;15.25;;;4.60;99.90;;;;;;5012318;28;20125;-83
2022/03/26 00:55:13;;;;;;;30.08;14.20;;;4.60;99.90;;;;;;5007407;28;20042;-83
2022/03/26 00:57:39;;;;;;;26.15;13.77;;;4.60;99.90;;;;;;5007059;28;20049;-83
2022/03/26 01:00:07;;;;;;;31.85;14.70;;;4.60;99.90;;;;;;5006633;28;20125;-84
2022/03/26 01:02:33;;;;;;;26.75;14.65;;;4.50;99.90;;;;;;5006069;28;20050;-84
2022/03/26 01:04:59;;;;;;;28.23;13.57;;;4.50;99.90;;;;;;5020776;28;20060;-84
2022/03/26 01:07:26;;;;;;;28.17;14.10;;;4.50;99.90;;;;;;5017120;28;20435;-84
2022/03/26 01:09:52;;;;;;;30.05;14.30;;;4.50;99.90;;;;;;5006784;28;20107;-83
2022/03/26 01:12:17;;;;;;;24.75;11.68;;;4.50;99.90;;;;;;5007302;28;20470;-83
2022/03/26 01:14:43;;;;;;;29.98;15.50;;;4.40;99.90;;;;;;5006855;28;20069;-84
2022/03/26 01:17:09;;;;;;;24.25;12.82;;;4.40;99.90;;;;;;5007437;28;20085;-83
2022/03/26 01:19:34;;;;;;;27.55;13.93;;;4.40;99.90;;;;;;5007427;28;20050;-83
2022/03/26 01:22:00;;;;;;;25.13;12.95;;;4.40;99.90;;;;;;5005794;28;20046;-83
2022/03/26 01:24:26;;;;;;;23.60;13.40;;;4.50;99.90;;;;;;5006024;28;20050;-84
2022/03/26 01:26:51;;;;;;;25.85;13.13;;;4.40;99.90;;;;;;5006798;28;20113;-83
2022/03/26 01:29:17;;;;;;;26.80;13.43;;;4.40;99.90;;;;;;5007215;28;20042;-83
2022/03/26 01:31:43;;;;;;;25.73;13.73;;;4.40;99.90;;;;;;5005558;28;20606;-83
2022/03/26 01:34:09;;;;;;;25.75;14.38;;;4.30;99.90;;;;;;5007367;28;20056;-83
2022/03/26 01:36:34;;;;;;;27.38;12.70;;;4.30;99.90;;;;;;5007067;28;20116;-83
2022/03/26 01:39:00;;;;;;;25.58;13.60;;;4.30;99.90;;;;;;5004972;28;20046;-83
2022/03/26 01:41:26;;;;;;;26.02;13.60;;;4.30;99.90;;;;;;5009745;28;20049;-84
2022/03/26 01:43:52;;;;;;;27.50;14.32;;;4.30;99.90;;;;;;4991798;28;20129;-83
2022/03/26 01:46:19;;;;;;;25.73;13.43;;;4.20;99.90;;;;;;5007358;28;20467;-83
2022/03/26 01:48:45;;;;;;;25.80;13.00;;;4.20;99.90;;;;;;5006623;28;20118;-83
2022/03/26 01:51:16;;;;;;;32.45;15.15;;;4.20;99.90;;;;;;5007376;28;20064;-83
2022/03/26 01:53:50;;;;;;;27.80;13.38;;;4.20;99.90;;;;;;5006168;28;20068;-83
2022/03/26 01:56:17;;;;;;;27.90;13.98;;;4.10;99.90;;;;;;5007021;28;20053;-84
2022/03/26 01:58:43;;;;;;;30.98;14.38;;;4.10;99.90;;;;;;5013188;28;20075;-83
2022/03/26 02:01:09;;;;;;;30.40;14.40;;;4.10;99.90;;;;;;5008951;28;20042;-83
2022/03/26 02:03:35;;;;;;;26.98;14.05;;;4.10;99.90;;;;;;5014567;28;20060;-83
2022/03/26 02:06:02;;;;;;;27.60;14.48;;;4.10;99.90;;;;;;5006210;28;20038;-83
2022/03/26 02:08:28;;;;;;;29.88;15.05;;;4.00;99.90;;;;;;5005249;28;20129;-84
2022/03/26 02:10:53;;;;;;;29.05;14.02;;;4.00;99.90;;;;;;5006664;28;20132;-83
2022/03/26 02:13:19;;;;;;;30.17;14.80;;;4.00;99.90;;;;;;4994228;28;20049;-83
2022/03/26 02:15:45;;;;;;;24.10;11.77;;;4.00;99.90;;;;;;5026299;28;20038;-83
2022/03/26 02:18:11;;;;;;;30.45;14.43;;;4.00;99.90;;;;;;5013944;28;20116;-84
2022/03/26 02:20:37;;;;;;;29.08;14.48;;;4.00;99.90;;;;;;5005912;28;20041;-83
2022/03/26 02:23:03;;;;;;;32.45;14.60;;;4.00;99.90;;;;;;5004932;28;20085;-83
2022/03/26 02:25:28;;;;;;;29.75;14.93;;;3.90;99.90;;;;;;5006739;28;20477;-83
2022/03/26 02:27:54;;;;;;;30.08;13.90;;;3.90;99.90;;;;;;5009319;28;20049;-83
2022/03/26 02:30:20;;;;;;;31.38;14.70;;;3.90;99.90;;;;;;5025981;28;20069;-83
2022/03/26 02:32:46;;;;;;;31.30;16.35;;;3.90;99.90;;;;;;5017653;28;20052;-83
2022/03/26 02:35:12;;;;;;;37.45;18.05;;;3.80;99.90;;;;;;5005919;28;20394;-83
2022/03/26 02:37:38;;;;;;;37.88;17.83;;;3.80;99.90;;;;;;5004598;28;20041;-84
2022/03/26 02:40:06;;;;;;;39.55;18.08;;;3.80;99.90;;;;;;5008214;28;20427;-83
2022/03/26 02:42:33;;;;;;;41.88;18.80;;;3.80;99.90;;;;;;5016767;28;20058;-83
2022/03/26 02:44:59;;;;;;;36.72;18.48;;;3.70;99.90;;;;;;5006125;28;20042;-83
2022/03/26 02:47:25;;;;;;;34.42;17.55;;;3.70;99.90;;;;;;5005121;28;20439;-84
2022/03/26 02:49:50;;;;;;;43.63;20.48;;;3.70;99.90;;;;;;5006614;28;20057;-83
2022/03/26 02:52:16;;;;;;;41.05;20.38;;;3.60;99.90;;;;;;5009588;28;20402;-83
2022/03/26 02:54:42;;;;;;;42.47;20.98;;;3.60;99.90;;;;;;5007626;28;20042;-84
2022/03/26 02:57:08;;;;;;;48.00;24.35;;;3.60;99.90;;;;;;5009735;28;20049;-83
2022/03/26 02:59:33;;;;;;;41.97;19.73;;;3.60;99.90;;;;;;5009460;28;20038;-83
2022/03/26 03:01:59;;;;;;;42.33;20.02;;;3.60;99.90;;;;;;5009423;28;20260;-84
2022/03/26 03:04:25;;;;;;;41.70;20.00;;;3.50;99.90;;;;;;5007911;28;20402;-84
2022/03/26 03:06:51;;;;;;;44.83;22.40;;;3.60;99.90;;;;;;5008292;28;20061;-83
2022/03/26 03:09:17;;;;;;;38.55;18.33;;;3.50;99.90;;;;;;5009244;28;20049;-83
2022/03/26 03:11:43;;;;;;;45.38;19.45;;;3.50;99.90;;;;;;5009570;28;20041;-83
2022/03/26 03:14:10;;;;;;;37.35;18.15;;;3.50;99.90;;;;;;5009239;28;20077;-83
2022/03/26 03:16:37;;;;;;;44.72;23.13;;;3.50;99.90;;;;;;5007893;28;20056;-84
2022/03/26 03:19:03;;;;;;;39.45;18.83;;;3.50;99.90;;;;;;5008595;28;20053;-84
2022/03/26 03:21:29;;;;;;;46.40;21.13;;;3.40;99.90;;;;;;5008149;28;20125;-83
2022/03/26 03:23:55;;;;;;;44.78;21.00;;;3.40;99.90;;;;;;5008680;28;20211;-83
2022/03/26 03:26:20;;;;;;;39.00;18.73;;;3.40;99.90;;;;;;5009615;28;20088;-83
2022/03/26 03:28:46;;;;;;;38.70;17.95;;;3.40;99.90;;;;;;5020921;28;20546;-84
2022/03/26 03:31:11;;;;;;;36.08;17.20;;;3.40;99.90;;;;;;5009168;28;20527;-83
2022/03/26 03:33:37;;;;;;;44.65;21.90;;;3.30;99.90;;;;;;5006596;28;20382;-83
2022/03/26 03:36:04;;;;;;;44.63;21.05;;;3.40;99.90;;;;;;5008895;28;20529;-84
2022/03/26 03:38:30;;;;;;;45.22;21.27;;;3.40;99.90;;;;;;5009199;28;20407;-84
2022/03/26 03:40:56;;;;;;;40.33;20.20;;;3.30;99.90;;;;;;5008951;28;20038;-84
2022/03/26 03:43:22;;;;;;;47.65;21.58;;;3.30;99.90;;;;;;5008267;28;20046;-83
2022/03/26 03:45:48;;;;;;;41.45;19.88;;;3.30;99.90;;;;;;5007145;28;20038;-83
2022/03/26 03:48:14;;;;;;;40.17;19.08;;;3.30;99.90;;;;;;5006927;28;20057;-83
2022/03/26 03:50:39;;;;;;;42.83;18.60;;;3.30;99.90;;;;;;5007238;28;20046;-84
2022/03/26 03:53:05;;;;;;;43.58;18.92;;;3.30;99.90;;;;;;5007237;28;20046;-84
2022/03/26 03:55:30;;;;;;;53.03;21.85;;;3.30;99.90;;;;;;5009162;28;20045;-84
2022/03/26 03:57:56;;;;;;;44.00;20.90;;;3.30;99.90;;;;;;5008482;28;20478;-83
2022/03/26 04:00:21;;;;;;;42.10;20.67;;;3.20;99.90;;;;;;5008849;28;20060;-83
2022/03/26 04:02:47;;;;;;;48.38;21.42;;;3.20;99.90;;;;;;5006431;28;20563;-83
2022/03/26 04:05:14;;;;;;;43.83;20.98;;;3.20;99.90;;;;;;5008567;28;20066;-83
2022/03/26 04:07:41;;;;;;;45.40;22.38;;;3.20;99.90;;;;;;5007816;28;20121;-83
2022/03/26 04:10:09;;;;;;;41.28;19.80;;;3.20;99.90;;;;;;5008961;28;20065;-83
2022/03/26 04:12:35;;;;;;;51.22;24.13;;;3.20;99.90;;;;;;5012526;28;20133;-84
2022/03/26 04:15:01;;;;;;;49.42;23.23;;;3.20;99.90;;;;;;5008464;28;20053;-83
2022/03/26 04:17:27;;;;;;;51.88;23.45;;;3.20;99.90;;;;;;5011794;28;20046;-83
2022/03/26 04:19:53;;;;;;;45.47;20.92;;;3.20;99.90;;;;;;5012829;28;20089;-85
2022/03/26 04:22:19;;;;;;;43.47;19.63;;;3.20;99.90;;;;;;5012353;28;20056;-84
2022/03/26 04:24:44;;;;;;;44.33;21.30;;;3.10;99.90;;;;;;5007243;28;20054;-84
2022/03/26 04:27:10;;;;;;;52.00;24.42;;;3.10;99.90;;;;;;5017624;28;20090;-84
2022/03/26 04:29:36;;;;;;;54.53;23.60;;;3.10;99.90;;;;;;5008503;28;20049;-83
2022/03/26 04:32:01;;;;;;;53.33;23.40;;;3.10;99.90;;;;;;5008226;28;20435;-83
2022/03/26 04:34:27;;;;;;;51.50;24.30;;;3.10;99.90;;;;;;5007547;28;20046;-83
2022/03/26 04:36:52;;;;;;;55.00;22.52;;;3.10;99.90;;;;;;5006883;28;20376;-84
2022/03/26 04:39:18;;;;;;;57.78;22.73;;;3.10;99.90;;;;;;5008820;28;20125;-83
2022/03/26 04:41:44;;;;;;;53.40;24.70;;;3.00;99.90;;;;;;5020371;28;20053;-83
2022/03/26 04:44:09;;;;;;;49.33;24.10;;;3.10;99.90;;;;;;5008113;28;20042;-83
2022/03/26 04:46:35;;;;;;;51.70;22.77;;;3.00;99.90;;;;;;5039547;28;20048;-83
2022/03/26 04:49:01;;;;;;;48.85;23.52;;;3.00;99.90;;;;;;5007803;28;20049;-84
2022/03/26 04:51:26;;;;;;;49.05;21.35;;;3.00;99.90;;;;;;5008187;28;20050;-83
2022/03/26 04:53:52;;;;;;;51.80;24.83;;;3.00;99.90;;;;;;5007111;28;20050;-84
2022/03/26 04:56:18;;;;;;;56.08;24.33;;;3.00;99.90;;;;;;5008298;28;20133;-84
2022/03/26 04:58:44;;;;;;;50.35;21.15;;;3.00;99.90;;;;;;5007200;28;20393;-83
2022/03/26 05:01:10;;;;;;;52.13;24.15;;;3.00;99.90;;;;;;5007392;28;20056;-83
2022/03/26 05:03:35;;;;;;;55.38;26.45;;;2.90;99.90;;;;;;5006001;28;20050;-83
2022/03/26 05:06:01;;;;;;;47.55;21.90;;;2.90;99.90;;;;;;5007427;28;20045;-83
2022/03/26 05:08:26;;;;;;;55.67;26.42;;;2.90;99.90;;;;;;5008177;28;20454;-84
2022/03/26 05:10:52;;;;;;;53.00;25.85;;;2.90;99.90;;;;;;5007515;28;20046;-83
2022/03/26 05:13:18;;;;;;;56.30;25.13;;;2.90;99.90;;;;;;5005872;28;20133;-83
2022/03/26 05:15:43;;;;;;;48.50;22.88;;;2.80;99.90;;;;;;5074571;28;20046;-83
2022/03/26 05:18:09;;;;;;;55.60;24.67;;;2.80;99.90;;;;;;4990263;28;20045;-84
2022/03/26 05:20:35;;;;;;;52.58;22.48;;;2.70;99.90;;;;;;5007725;28;20113;-83
2022/03/26 05:23:02;;;;;;;51.05;24.02;;;2.70;99.90;;;;;;5007403;28;20402;-83
2022/03/26 05:25:28;;;;;;;55.47;25.55;;;2.70;99.90;;;;;;5007911;28;20175;-84
2022/03/26 05:27:54;;;;;;;65.78;29.42;;;2.60;99.90;;;;;;5006865;28;20120;-83
2022/03/26 05:30:20;;;;;;;58.70;30.02;;;2.70;99.90;;;;;;5005974;28;20146;-83
2022/03/26 05:32:46;;;;;;;63.45;27.17;;;2.70;99.90;;;;;;5006778;28;20046;-83
2022/03/26 05:35:16;;;;;;;66.32;29.75;;;2.70;99.90;;;;;;5006920;28;20505;-84
2022/03/26 05:37:43;;;;;;;53.90;26.08;;;2.70;99.90;;;;;;5006788;28;20053;-83
2022/03/26 05:40:11;;;;;;;55.90;25.30;;;2.70;99.90;;;;;;5007216;28;20054;-83
2022/03/26 05:42:37;;;;;;;57.78;26.30;;;2.80;99.90;;;;;;4988968;28;20056;-84
2022/03/26 05:45:07;;;;;;;61.20;26.92;;;2.80;99.90;;;;;;5006602;28;20049;-83
2022/03/26 05:47:34;;;;;;;64.78;28.85;;;2.80;99.90;;;;;;5005647;28;20053;-83
2022/03/26 05:50:00;;;;;;;56.97;26.17;;;2.80;99.90;;;;;;5006827;28;20056;-84
2022/03/26 05:52:26;;;;;;;63.95;28.95;;;2.80;99.90;;;;;;5006175;28;20091;-84
2022/03/26 05:54:52;;;;;;;65.63;28.15;;;2.90;99.90;;;;;;5006298;28;20046;-84
2022/03/26 05:57:20;;;;;;;61.55;28.73;;;2.80;99.90;;;;;;5006962;28;20041;-84
2022/03/26 05:59:46;;;;;;;60.50;25.85;;;2.90;99.90;;;;;;5010209;28;20037;-84
2022/03/26 06:02:13;;;;;;;60.08;26.92;;;2.90;99.90;;;;;;5008691;28;20077;-84
2022/03/26 06:04:42;;;;;;;52.33;24.17;;;2.90;99.90;;;;;;5010051;28;20046;-83
2022/03/26 06:07:08;;;;;;;60.85;26.17;;;2.90;99.90;;;;;;5007054;28;20144;-83
2022/03/26 06:09:38;;;;;;;67.53;28.75;;;2.90;99.90;;;;;;5006368;28;20046;-83
2022/03/26 06:12:05;;;;;;;58.33;26.65;;;2.90;99.90;;;;;;5006712;28;20064;-83
2022/03/26 06:14:31;;;;;;;61.80;25.70;;;3.00;99.90;;;;;;5008512;28;20043;-83
2022/03/26 06:16:57;;;;;;;62.83;28.88;;;3.00;99.90;;;;;;5020780;28;20062;-83
2022/03/26 06:19:25;;;;;;;62.72;27.75;;;3.10;99.90;;;;;;5026711;28;20151;-83
2022/03/26 06:21:50;;;;;;;57.53;25.15;;;3.10;99.90;;;;;;5005846;28;20042;-85
2022/03/26 06:24:16;;;;;;;61.80;28.45;;;3.10;99.90;;;;;;5037561;28;20038;-86
2022/03/26 06:26:44;;;;;;;60.20;27.67;;;3.10;99.90;;;;;;5019903;28;20324;-84
2022/03/26 06:29:10;;;;;;;60.22;26.90;;;3.20;99.90;;;;;;5037017;28;20558;-85
2022/03/26 06:31:36;;;;;;;67.03;30.23;;;3.20;99.90;;;;;;4988510;28;20053;-85
2022/03/26 06:34:01;;;;;;;67.88;31.05;;;3.30;99.90;;;;;;5004928;28;20042;-85
2022/03/26 06:36:27;;;;;;;67.60;31.25;;;3.40;99.90;;;;;;5006733;28;20040;-85
2022/03/26 06:38:52;;;;;;;66.38;29.42;;;3.50;99.90;;;;;;5005916;28;20068;-86
2022/03/26 06:41:18;;;;;;;66.22;29.45;;;3.60;99.90;;;;;;5006070;28;20054;-85
2022/03/26 06:43:45;;;;;;;71.03;32.80;;;3.70;99.90;;;;;;4988086;28;20069;-85
2022/03/26 06:46:10;;;;;;;65.55;31.10;;;3.80;99.90;;;;;;5005002;28;20432;-85
2022/03/26 06:48:37;;;;;;;63.78;29.83;;;3.90;99.90;;;;;;5004732;28;20128;-84
2022/03/26 06:51:03;;;;;;;65.95;30.63;;;4.00;99.90;;;;;;5005580;28;20068;-83
2022/03/26 06:53:30;;;;;;;97.15;39.17;;;4.20;99.90;;;;;;5005110;28;20050;-84
2022/03/26 06:55:56;;;;;;;92.68;40.45;;;4.30;99.90;;;;;;5005891;28;20037;-84
2022/03/26 06:58:23;;;;;;;102.38;43.30;;;4.40;99.90;;;;;;5005165;28;20053;-84
2022/03/26 07:00:49;;;;;;;98.68;42.20;;;4.70;99.90;;;;;;5005765;28;20038;-83
2022/03/26 07:03:14;;;;;;;121.55;48.83;;;4.80;99.90;;;;;;5004443;28;20532;-84
2022/03/26 07:05:40;;;;;;;133.05;56.63;;;5.00;99.90;;;;;;5005904;28;20041;-84
2022/03/26 07:08:06;;;;;;;133.15;53.10;;;5.20;99.90;;;;;;5016024;28;20062;-84
2022/03/26 07:10:32;;;;;;;126.43;58.10;;;5.40;99.90;;;;;;5020773;28;20034;-84
2022/03/26 07:12:57;;;;;;;123.47;51.58;;;5.60;99.90;;;;;;5006100;28;20038;-84
2022/03/26 07:15:23;;;;;;;115.82;49.72;;;5.90;99.90;;;;;;5006156;28;20091;-84
2022/03/26 07:17:49;;;;;;;112.53;51.22;;;6.10;99.90;;;;;;5005615;28;20533;-84
2022/03/26 07:20:14;;;;;;;121.18;51.85;;;6.30;99.90;;;;;;5005574;28;20068;-83
2022/03/26 07:22:42;;;;;;;109.13;47.67;;;6.50;99.90;;;;;;5005472;28;20167;-84
2022/03/26 07:25:09;;;;;;;115.90;53.80;;;6.70;99.90;;;;;;5004898;28;21097;-85
2022/03/26 07:27:35;;;;;;;111.85;49.95;;;6.90;99.90;;;;;;5005534;28;20050;-84
2022/03/26 07:30:03;;;;;;;115.63;54.72;;;7.10;99.90;;;;;;5019359;28;20046;-84
2022/03/26 07:32:29;;;;;;;101.07;50.00;;;7.20;99.90;;;;;;5004630;28;20050;-84
2022/03/26 07:34:55;;;;;;;95.97;45.03;;;7.40;99.90;;;;;;5004712;28;20045;-84
2022/03/26 07:37:21;;;;;;;100.75;62.58;;;7.60;99.90;;;;;;5008798;28;20350;-84
2022/03/26 07:39:46;;;;;;;92.45;46.03;;;7.80;99.90;;;;;;5012006;28;20069;-84
2022/03/26 07:42:12;;;;;;;98.47;48.53;;;8.00;99.90;;;;;;5017513;28;20077;-84
2022/03/26 07:44:38;;;;;;;95.13;63.30;;;8.20;99.90;;;;;;5021576;28;20047;-84
2022/03/26 07:47:04;;;;;;;98.95;63.22;;;8.40;99.90;;;;;;4999310;28;20700;-83
2022/03/26 07:49:29;;;;;;;92.93;47.25;;;8.60;99.90;;;;;;5007847;28;20406;-83
2022/03/26 07:51:55;;;;;;;85.68;44.47;;;8.80;99.90;;;;;;5006763;28;20061;-83
2022/03/26 07:54:20;;;;;;;80.60;45.92;;;8.90;99.90;;;;;;5008555;28;20042;-83
2022/03/26 07:56:46;;;;;;;90.38;56.10;;;9.10;99.90;;;;;;5008274;28;20467;-83
2022/03/26 07:59:12;;;;;;;76.03;51.20;;;9.20;99.90;;;;;;5025580;28;20052;-83
2022/03/26 08:01:37;;;;;;;78.88;52.95;;;9.40;99.90;;;;;;5027938;28;20405;-83
2022/03/26 08:04:03;;;;;;;77.75;51.00;;;9.50;99.90;;;;;;5028356;28;20053;-83
2022/03/26 08:06:28;;;;;;;73.65;50.50;;;9.60;99.90;;;;;;5028633;28;20042;-83
2022/03/26 08:08:54;;;;;;;76.57;50.50;;;9.80;99.90;;;;;;5026116;28;20080;-82
2022/03/26 08:11:19;;;;;;;75.38;50.30;;;9.90;99.90;;;;;;5028488;28;20049;-82
2022/03/26 08:13:45;;;;;;;75.78;51.58;;;10.00;99.90;;;;;;5014365;28;20042;-82
2022/03/26 08:16:11;;;;;;;73.20;49.78;;;10.10;99.90;;;;;;5013219;28;20042;-84
2022/03/26 08:18:37;;;;;;;70.57;47.92;;;10.30;99.90;;;;;;5009757;28;20375;-82
2022/03/26 08:21:03;;;;;;;70.15;48.75;;;10.40;99.90;;;;;;5007203;28;20082;-82
2022/03/26 08:23:29;;;;;;;68.13;46.65;;;10.50;99.90;;;;;;5007407;28;20045;-83
2022/03/26 08:46:30;;;;;;;55.13;38.47;;;11.00;99.90;;;;;;5099754;27;20124;-93
2022/03/26 08:48:57;;;;;;;58.38;38.47;;;11.90;93.50;;;;;;5090298;28;20098;-92
2022/03/26 08:51:23;;;;;;;57.92;39.60;;;12.00;94.90;;;;;;5075324;28;20116;-96
2022/03/26 08:53:48;;;;;;;58.25;40.30;;;12.00;95.50;;;;;;5035821;28;20041;-93
2022/03/26 08:56:14;;;;;;;58.20;40.22;;;12.10;95.70;;;;;;5046163;28;20048;-94
2022/03/26 08:58:40;;;;;;;53.45;37.45;;;12.20;95.20;;;;;;5075989;28;20036;-96
2022/03/26 09:01:07;;;;;;;55.60;35.83;;;12.30;93.50;;;;;;5073226;28;20119;-94
2022/03/26 09:03:37;;;;;;;56.13;38.55;;;12.40;92.40;;;;;;5059126;28;20085;-94
2022/03/26 09:06:06;;;;;;;50.50;34.40;;;12.60;92.30;;;;;;5074432;28;20052;-94
2022/03/26 09:08:32;;;;;;;50.38;34.67;;;12.70;90.40;;;;;;5088775;28;20082;-91
2022/03/26 09:10:58;;;;;;;52.20;33.80;;;12.80;89.00;;;;;;5064073;28;20435;-91
2022/03/26 09:13:24;;;;;;;49.42;32.22;;;12.90;86.40;;;;;;5068648;28;20108;-89
2022/03/26 09:15:50;;;;;;;46.78;31.38;;;13.00;84.00;;;;;;5059087;28;20044;-89
2022/03/26 09:18:16;;;;;;;46.70;31.42;;;13.10;83.80;;;;;;5072816;28;20497;-90
2022/03/26 09:20:41;;;;;;;44.15;29.88;;;13.20;81.60;;;;;;5067509;28;20175;-89
2022/03/26 09:23:07;;;;;;;45.33;29.17;;;13.30;80.20;;;;;;5034064;28;20497;-90
2022/03/26 09:25:34;;;;;;;42.72;28.75;;;13.40;80.20;;;;;;5066542;28;20511;-89
2022/03/26 09:28:00;;;;;;;44.30;28.10;;;13.50;79.10;;;;;;5052005;28;20041;-92
2022/03/26 09:30:26;;;;;;;41.83;28.75;;;13.60;78.40;;;;;;5050815;28;20044;-89
2022/03/26 09:32:51;;;;;;;38.22;26.70;;;13.70;78.30;;;;;;5049682;28;20111;-89
2022/03/26 09:35:17;;;;;;;39.17;27.77;;;13.80;77.60;;;;;;5052560;28;20050;-90
2022/03/26 09:37:48;;;;;;;39.08;26.48;;;13.90;77.60;;;;;;5068026;28;20028;-92
2022/03/26 09:40:16;;;;;;;39.65;26.50;;;13.90;78.00;;;;;;5085723;28;20047;-91
2022/03/26 09:42:43;;;;;;;36.88;27.60;;;14.00;78.00;;;;;;5050106;28;20052;-95
2022/03/26 09:45:09;;;;;;;38.30;26.45;;;14.10;78.20;;;;;;5048520;28;20114;-89
2022/03/26 09:47:35;;;;;;;39.08;26.65;;;14.10;79.10;;;;;;5035472;28;20436;-90
2022/03/26 09:50:03;;;;;;;37.88;27.50;;;14.10;80.10;;;;;;5049979;28;20048;-91
2022/03/26 09:52:28;;;;;;;39.08;27.42;;;14.30;80.30;;;;;;5037401;28;20120;-89
2022/03/26 09:54:57;;;;;;;37.35;25.35;;;14.40;80.20;;;;;;5070855;28;20496;-91
2022/03/26 09:57:23;;;;;;;38.50;27.17;;;14.40;81.20;;;;;;5023349;28;20078;-90
2022/03/26 09:59:49;;;;;;;38.58;26.98;;;14.40;81.60;;;;;;5038024;28;20044;-91
2022/03/26 10:02:16;;;;;;;34.55;24.70;;;14.50;82.60;;;;;;5044720;28;20052;-90
2022/03/26 10:04:43;;;;;;;32.22;24.92;;;14.60;83.40;;;;;;5074147;28;20384;-90
2022/03/26 10:07:09;;;;;;;35.65;26.33;;;14.60;84.50;;;;;;5055644;28;20044;-91
2022/03/26 10:09:37;;;;;;;35.53;25.55;;;14.70;83.60;;;;;;5036641;28;20043;-90
2022/03/26 10:12:04;;;;;;;34.97;26.27;;;14.80;84.10;;;;;;5052486;28;20032;-91
2022/03/26 10:14:47;;;;;;;30.52;23.67;;;14.90;84.40;;;;;;5056832;28;20036;-89
2022/03/26 10:17:15;;;;;;;35.65;26.08;;;14.90;83.70;;;;;;5045082;28;20053;-91
2022/03/26 10:19:49;;;;;;;33.28;25.25;;;14.90;84.70;;;;;;5019075;28;20041;-90
2022/03/26 10:22:36;;;;;;;31.55;23.23;;;15.00;85.30;;;;;;5034695;28;20472;-91
2022/03/26 10:25:14;;;;;;;29.20;22.35;;;15.10;86.40;;;;;;5042695;28;20048;-88
2022/03/26 10:27:45;;;;;;;26.65;21.63;;;15.20;83.80;;;;;;5055271;28;20051;-92
2022/03/26 10:30:14;;;;;;;25.58;19.15;;;15.30;81.90;;;;;;5072257;28;20102;-91
2022/03/26 10:32:49;;;;;;;22.85;16.70;;;15.30;83.30;;;;;;5062587;28;20052;-93
2022/03/26 10:35:28;;;;;;;24.27;18.30;;;15.40;82.60;;;;;;5018763;28;20565;-91
2022/03/26 10:38:00;;;;;;;25.33;17.92;;;15.50;83.00;;;;;;5046039;28;20045;-91
2022/03/26 10:40:37;;;;;;;22.77;17.10;;;15.50;82.30;;;;;;5036440;28;20071;-93
2022/03/26 10:43:11;;;;;;;25.05;19.52;;;15.60;83.00;;;;;;5035058;28;20071;-91
2022/03/26 10:45:59;;;;;;;25.92;18.80;;;15.70;83.00;;;;;;5022119;28;20053;-92
2022/03/26 10:48:30;;;;;;;22.15;16.95;;;15.70;82.80;;;;;;5073424;28;20036;-92
2022/03/26 10:51:00;;;;;;;19.35;14.90;;;15.80;80.70;;;;;;5054684;28;20041;-93
2022/03/26 10:53:54;;;;;;;19.20;14.38;;;15.90;81.50;;;;;;5056019;28;20135;-92
2022/03/26 10:56:20;;;;;;;19.75;14.75;;;15.90;77.40;;;;;;5053262;28;20231;-91
2022/03/26 10:58:46;;;;;;;19.75;14.88;;;16.00;79.40;;;;;;5054765;28;20044;-92
2022/03/26 11:01:15;;;;;;;20.50;14.77;;;16.00;77.80;;;;;;5054020;28;20048;-93
2022/03/26 11:03:41;;;;;;;19.77;15.02;;;16.00;77.40;;;;;;5038720;28;20075;-91
2022/03/26 11:06:10;;;;;;;19.75;15.25;;;16.00;77.40;;;;;;5055046;28;20451;-92
2022/03/26 11:08:37;;;;;;;18.38;13.95;;;16.10;78.60;;;;;;5053922;28;20033;-89
2022/03/26 11:11:12;;;;;;;20.48;14.18;;;16.20;77.10;;;;;;5048147;28;20077;-89
2022/03/26 11:13:49;;;;;;;17.27;13.82;;;16.20;73.40;;;;;;5050010;28;20040;-91
2022/03/26 11:16:36;;;;;;;19.05;14.90;;;16.30;76.00;;;;;;5034092;28;20049;-92
2022/03/26 11:19:10;;;;;;;17.60;14.25;;;16.20;74.70;;;;;;5055589;28;20476;-90
2022/03/26 11:22:09;;;;;;;16.70;13.25;;;16.30;77.00;;;;;;5033374;28;20055;-92
2022/03/26 11:25:01;;;;;;;19.02;13.55;;;16.40;74.30;;;;;;5054732;28;20048;-92
2022/03/26 11:28:07;;;;;;;21.05;15.45;;;16.40;76.00;;;;;;5037280;28;20040;-93
2022/03/26 11:30:54;;;;;;;17.95;14.80;;;16.50;75.00;;;;;;5051314;28;20037;-90
2022/03/26 11:33:20;;;;;;;21.35;16.00;;;16.50;73.40;;;;;;5062152;28;20040;-95
2022/03/26 11:36:08;;;;;;;21.50;16.95;;;16.50;75.40;;;;;;5040067;28;20047;-90
2022/03/26 11:38:37;;;;;;;20.73;16.90;;;16.50;75.90;;;;;;5060253;28;20405;-94
2022/03/26 11:41:09;;;;;;;21.52;16.67;;;16.50;75.20;;;;;;5024520;28;20045;-94
2022/03/26 11:43:44;;;;;;;21.45;16.48;;;16.60;76.70;;;;;;5074867;28;20045;-93
2022/03/26 11:52:25;;;;;;;20.50;15.32;;;16.80;75.50;;;;;;5043532;28;20109;-94
2022/03/26 11:55:12;;;;;;;19.83;15.13;;;16.80;75.60;;;;;;5072196;28;20045;-92
2022/03/26 11:57:37;;;;;;;18.13;14.13;;;16.80;74.00;;;;;;5039075;28;20099;-93
2022/03/26 12:00:14;;;;;;;19.88;15.93;;;16.90;73.90;;;;;;5059729;28;20080;-93
2022/03/26 12:02:49;;;;;;;18.88;14.55;;;16.90;73.40;;;;;;5008040;28;20033;-94
2022/03/26 12:08:19;;;;;;;16.58;13.02;;;17.00;74.10;;;;;;5059090;28;20447;-90
2022/03/26 12:10:47;;;;;;;16.23;12.45;;;17.00;73.00;;;;;;5048228;28;20033;-89
2022/03/26 12:13:21;;;;;;;17.58;12.10;;;17.10;72.10;;;;;;5033631;28;20126;-90
2022/03/26 12:16:04;;;;;;;16.23;11.80;;;17.10;71.00;;;;;;5056911;28;20036;-92
2022/03/26 12:18:34;;;;;;;15.82;12.45;;;17.10;70.10;;;;;;5051023;28;20127;-90
2022/03/26 12:21:18;;;;;;;16.00;12.30;;;17.10;70.00;;;;;;5028390;28;20037;-90
2022/03/26 12:23:43;;;;;;;17.27;12.45;;;17.20;72.30;;;;;;5034956;28;20040;-90
2022/03/26 12:26:09;;;;;;;16.90;13.18;;;17.20;72.70;;;;;;5067758;28;20102;-89
2022/03/26 12:28:41;;;;;;;15.05;12.30;;;17.20;71.50;;;;;;5055225;28;20041;-93
2022/03/26 12:31:08;;;;;;;16.02;12.68;;;17.30;71.30;;;;;;5015588;28;20052;-90
2022/03/26 12:33:44;;;;;;;15.00;10.77;;;17.20;71.90;;;;;;5051113;28;20040;-90
2022/03/26 12:36:12;;;;;;;16.00;10.77;;;17.20;70.90;;;;;;5067770;28;20438;-87
2022/03/26 12:38:38;;;;;;;12.70;9.70;;;17.30;70.80;;;;;;5035013;28;20079;-89
2022/03/26 12:41:06;;;;;;;13.57;9.02;;;17.20;69.20;;;;;;5051405;28;20047;-90
2022/03/26 12:43:32;;;;;;;12.80;9.45;;;17.20;68.90;;;;;;5069319;28;20044;-88
2022/03/26 12:45:59;;;;;;;11.23;8.05;;;17.20;68.70;;;;;;5050652;28;20053;-88
2022/03/26 12:48:29;;;;;;;13.43;8.70;;;17.30;69.70;;;;;;5070011;28;20041;-90
2022/03/26 12:51:01;;;;;;;11.40;7.88;;;17.40;70.20;;;;;;5052306;28;20044;-89
2022/03/26 12:53:37;;;;;;;11.95;8.38;;;17.60;70.10;;;;;;5020177;28;20056;-89
2022/03/26 12:56:07;;;;;;;12.23;8.93;;;17.50;66.30;;;;;;5051162;28;20059;-89
2022/03/26 13:01:20;;;;;;;13.63;8.40;;;17.30;66.90;;;;;;5080815;28;20053;-88
2022/03/26 13:03:45;;;;;;;12.82;8.63;;;17.10;67.20;;;;;;5051123;28;20044;-89
2022/03/26 13:06:18;;;;;;;11.48;8.00;;;17.00;68.20;;;;;;5071560;28;20099;-89
2022/03/26 13:08:48;;;;;;;12.35;7.80;;;17.00;69.00;;;;;;5055527;28;20075;-90